createdAt,value
2022-09-10T00:01:21.926Z,4.43
2022-09-10T00:03:50.099Z,4.68
2022-09-10T00:06:18.584Z,4.10
2022-09-10T00:08:47.465Z,4.47
2022-09-10T00:11:15.633Z,4.40
2022-09-10T00:13:44.055Z,4.60
2022-09-10T00:16:15.260Z,4.97
2022-09-10T00:18:43.717Z,4.57
2022-09-10T00:21:13.311Z,5.22
2022-09-10T00:23:45.485Z,4.53
2022-09-10T00:26:16.982Z,4.15
2022-09-10T00:28:44.891Z,4.85
2022-09-10T00:31:14.424Z,4.82
2022-09-10T00:33:42.702Z,5.63
2022-09-10T00:36:17.921Z,5.10
2022-09-10T00:38:45.773Z,6.30
2022-09-10T00:41:14.256Z,5.70
2022-09-10T00:43:51.643Z,6.35
2022-09-10T00:46:32.525Z,5.93
2022-09-10T00:49:02.992Z,5.50
2022-09-10T00:51:33.909Z,5.53
2022-09-10T00:54:02.923Z,4.50
2022-09-10T00:56:30.955Z,4.15
2022-09-10T00:58:58.868Z,4.22
2022-09-10T01:01:27.880Z,4.28
2022-09-10T01:03:56.682Z,3.50
2022-09-10T01:06:24.956Z,3.65
2022-09-10T01:08:52.466Z,3.55
2022-09-10T01:11:42.682Z,3.30
2022-09-10T01:14:40.624Z,3.10
2022-09-10T01:17:18.266Z,3.42
2022-09-10T01:20:09.290Z,3.03
2022-09-10T01:22:54.916Z,3.17
2022-09-10T01:25:32.201Z,3.25
2022-09-10T01:28:07.008Z,3.22
2022-09-10T01:30:41.176Z,3.05
2022-09-10T01:33:15.972Z,2.92
2022-09-10T01:35:49.469Z,3.22
2022-09-10T01:38:22.633Z,3.33
2022-09-10T01:40:53.983Z,3.60
2022-09-10T01:43:24.779Z,3.20
2022-09-10T01:46:10.532Z,3.60
2022-09-10T01:49:04.861Z,3.22
2022-09-10T01:51:42.732Z,3.72
2022-09-10T01:54:25.407Z,3.58
2022-09-10T01:57:07.114Z,3.78
2022-09-10T01:59:44.637Z,3.92
2022-09-10T02:02:17.769Z,3.00
2022-09-10T02:04:47.878Z,2.88
2022-09-10T02:07:18.422Z,3.10
2022-09-10T02:09:46.867Z,2.92
2022-09-10T02:12:19.720Z,2.70
2022-09-10T02:14:55.111Z,3.05
2022-09-10T02:17:31.547Z,2.58
2022-09-10T02:20:02.110Z,2.65
2022-09-10T02:22:31.797Z,2.90
2022-09-10T02:24:59.543Z,3.33
2022-09-10T02:27:29.988Z,2.97
2022-09-10T02:29:59.245Z,2.85
2022-09-10T02:32:26.810Z,2.60
2022-09-10T02:34:54.455Z,3.10
2022-09-10T02:37:21.946Z,3.45
2022-09-10T02:39:49.692Z,2.97
2022-09-10T02:42:18.111Z,3.10
2022-09-10T02:44:47.807Z,3.17
2022-09-10T02:47:16.776Z,2.80
2022-09-10T02:49:45.772Z,3.53
2022-09-10T02:52:13.736Z,2.90
2022-09-10T02:54:41.357Z,3.17
2022-09-10T02:57:12.183Z,2.92
2022-09-10T02:59:39.881Z,3.38
2022-09-10T03:02:09.712Z,3.28
2022-09-10T03:04:40.471Z,3.17
2022-09-10T03:07:08.629Z,2.88
2022-09-10T03:09:36.238Z,3.30
2022-09-10T03:12:04.031Z,3.10
2022-09-10T03:14:32.695Z,2.95
2022-09-10T03:17:02.956Z,3.00
2022-09-10T03:19:31.333Z,3.30
2022-09-10T03:22:01.223Z,2.88
2022-09-10T03:24:29.397Z,3.28
2022-09-10T03:26:57.086Z,3.13
2022-09-10T03:29:24.801Z,3.42
2022-09-10T03:31:53.059Z,3.20
2022-09-10T03:34:21.975Z,3.20
2022-09-10T03:36:50.908Z,3.03
2022-09-10T03:39:19.857Z,2.97
2022-09-10T03:41:48.799Z,3.28
2022-09-10T03:44:17.253Z,3.15
2022-09-10T03:46:45.509Z,3.00
2022-09-10T03:49:15.271Z,3.20
2022-09-10T03:51:43.134Z,3.40
2022-09-10T03:54:10.848Z,3.30
2022-09-10T03:56:41.459Z,3.40
2022-09-10T03:59:09.579Z,3.50
2022-09-10T04:01:37.950Z,3.58
2022-09-10T04:04:08.313Z,3.65
2022-09-10T04:06:37.163Z,3.92
2022-09-10T04:09:05.319Z,3.38
2022-09-10T04:11:33.202Z,3.50
2022-09-10T04:14:02.173Z,3.70
2022-09-10T04:16:32.226Z,3.45
2022-09-10T04:18:59.967Z,3.58
2022-09-10T04:21:28.641Z,3.60
2022-09-10T04:23:59.219Z,3.95
2022-09-10T04:26:27.161Z,3.72
2022-09-10T04:28:55.761Z,3.88
2022-09-10T04:31:24.625Z,4.13
2022-09-10T04:33:55.885Z,4.05
2022-09-10T04:36:26.345Z,3.97
2022-09-10T04:38:54.238Z,4.22
2022-09-10T04:41:21.847Z,4.50
2022-09-10T04:43:50.458Z,4.90
2022-09-10T04:46:18.517Z,4.80
2022-09-10T04:48:51.278Z,5.43
2022-09-10T04:51:22.469Z,4.82
2022-09-10T04:53:53.026Z,4.43
2022-09-10T04:56:23.378Z,4.50
2022-09-10T04:58:51.713Z,4.63
2022-09-10T05:01:22.561Z,4.05
2022-09-10T05:03:54.350Z,4.63
2022-09-10T05:06:23.242Z,4.03
2022-09-10T05:08:51.366Z,4.63
2022-09-10T05:11:20.038Z,4.63
2022-09-10T05:13:48.383Z,4.30
2022-09-10T05:16:21.245Z,4.38
2022-09-10T05:18:49.069Z,4.00
2022-09-10T05:21:18.486Z,4.63
2022-09-10T05:23:46.505Z,4.55
2022-09-10T05:26:14.082Z,4.85
2022-09-10T05:28:42.542Z,4.50
2022-09-10T05:31:12.884Z,4.68
2022-09-10T05:33:41.585Z,5.10
2022-09-10T05:36:11.549Z,4.70
2022-09-10T05:38:42.280Z,4.32
2022-09-10T05:41:10.656Z,4.15
2022-09-10T05:43:41.977Z,4.20
2022-09-10T05:46:10.902Z,4.35
2022-09-10T05:48:41.717Z,4.57
2022-09-10T05:51:11.183Z,4.72
2022-09-10T05:53:41.391Z,4.82
2022-09-10T05:56:10.295Z,4.20
2022-09-10T05:58:39.506Z,4.32
2022-09-10T06:01:08.657Z,4.15
2022-09-10T06:03:36.256Z,4.50
2022-09-10T06:06:03.851Z,4.30
2022-09-10T06:08:37.174Z,4.13
2022-09-10T06:11:13.329Z,4.30
2022-09-10T06:13:45.250Z,3.78
2022-09-10T06:16:13.745Z,4.57
2022-09-10T06:18:42.416Z,4.13
2022-09-10T06:21:14.229Z,4.75
2022-09-10T06:23:43.462Z,4.75
2022-09-10T06:26:14.678Z,4.65
2022-09-10T06:28:43.238Z,4.57
2022-09-10T06:31:14.189Z,4.57
2022-09-10T06:33:42.543Z,4.60
2022-09-10T06:36:11.102Z,5.40
2022-09-10T06:38:38.845Z,5.15
2022-09-10T06:41:08.980Z,4.60
2022-09-10T06:43:43.167Z,4.95
2022-09-10T06:46:56.854Z,4.97
2022-09-10T06:49:12.281Z,4.93
2022-09-10T06:51:42.748Z,4.75
2022-09-10T06:54:11.616Z,5.43
2022-09-10T06:56:40.262Z,5.05
2022-09-10T06:59:09.799Z,4.30
2022-09-10T07:01:43.982Z,4.97
2022-09-10T07:04:11.820Z,5.53
2022-09-10T07:06:39.727Z,5.63
2022-09-10T07:09:11.275Z,4.82
2022-09-10T07:11:50.529Z,4.55
2022-09-10T07:14:20.675Z,5.00
2022-09-10T07:16:50.200Z,4.40
2022-09-10T07:19:18.702Z,4.65
2022-09-10T07:21:48.335Z,4.90
2022-09-10T07:24:17.180Z,4.57
2022-09-10T07:26:59.392Z,5.28
2022-09-10T07:29:31.240Z,4.60
2022-09-10T07:32:00.006Z,5.47
2022-09-10T07:34:28.058Z,4.30
2022-09-10T07:36:56.712Z,5.22
2022-09-10T07:39:25.843Z,5.32
2022-09-10T07:41:54.346Z,5.15
2022-09-10T07:44:26.616Z,5.40
2022-09-10T07:46:59.133Z,5.57
2022-09-10T07:49:27.991Z,6.60
2022-09-10T07:51:59.801Z,5.60
2022-09-10T07:54:32.068Z,5.93
2022-09-10T07:57:00.922Z,5.95
2022-09-10T07:59:28.946Z,5.47
2022-09-10T08:02:04.603Z,5.65
2022-09-10T08:04:37.119Z,6.10
2022-09-10T08:07:08.477Z,5.38
2022-09-10T08:09:38.652Z,6.75
2022-09-10T08:12:08.770Z,8.38
2022-09-10T08:14:37.936Z,6.90
2022-09-10T08:17:06.933Z,7.07
2022-09-10T08:19:39.716Z,8.68
2022-09-10T08:22:11.499Z,9.43
2022-09-10T08:24:44.765Z,9.20
2022-09-10T08:27:12.989Z,9.52
2022-09-10T08:29:44.626Z,9.00
2022-09-10T08:32:14.181Z,10.15
2022-09-10T08:34:42.272Z,10.32
2022-09-10T08:37:12.383Z,9.38
2022-09-10T08:39:40.455Z,7.72
2022-09-10T08:42:16.344Z,9.35
2022-09-10T08:44:50.101Z,9.73
2022-09-10T08:47:37.176Z,8.55
2022-09-10T08:50:16.092Z,9.25
2022-09-10T08:52:49.786Z,9.00
2022-09-10T08:55:28.217Z,9.38
2022-09-10T08:57:59.333Z,10.48
2022-09-10T09:00:29.908Z,11.50
2022-09-10T09:03:03.624Z,11.32
2022-09-10T09:05:41.727Z,10.25
2022-09-10T09:08:13.431Z,10.60
2022-09-10T09:10:49.155Z,9.88
2022-09-10T09:13:47.797Z,11.05
2022-09-10T09:16:28.753Z,11.10
2022-09-10T09:19:05.995Z,10.02
2022-09-10T09:21:43.370Z,12.38
2022-09-10T09:24:22.224Z,11.38
2022-09-10T09:26:57.528Z,9.65
2022-09-10T09:29:32.300Z,10.98
2022-09-10T09:32:06.264Z,11.38
2022-09-10T09:34:40.882Z,13.68
2022-09-10T09:37:18.223Z,13.35
2022-09-10T09:39:54.374Z,11.65
2022-09-10T09:42:29.955Z,13.10
2022-09-10T09:45:07.488Z,13.88
2022-09-10T09:47:36.855Z,13.43
2022-09-10T09:50:06.768Z,13.35
2022-09-10T09:52:35.721Z,13.98
2022-09-10T09:55:15.398Z,13.45
2022-09-10T09:57:43.733Z,12.27
2022-09-10T10:00:36.051Z,12.82
2022-09-10T10:03:16.867Z,10.15
2022-09-10T10:05:46.763Z,10.40
2022-09-10T10:08:30.770Z,12.10
2022-09-10T10:11:00.803Z,12.98
2022-09-10T10:13:38.154Z,12.23
2022-09-10T10:16:17.122Z,8.73
2022-09-10T10:18:45.226Z,9.35
2022-09-10T10:21:18.717Z,9.70
2022-09-10T10:23:47.511Z,8.57
2022-09-10T10:26:27.587Z,8.57
2022-09-10T10:28:59.690Z,8.18
2022-09-10T10:31:41.126Z,8.82
2022-09-10T10:34:33.594Z,8.52
2022-09-10T10:37:10.474Z,11.00
2022-09-10T10:39:53.678Z,10.82
2022-09-10T10:42:30.657Z,9.18
2022-09-10T10:45:35.062Z,9.05
2022-09-10T10:48:10.344Z,9.13
2022-09-10T10:50:52.675Z,9.88
2022-09-10T10:53:37.167Z,9.45
2022-09-10T10:56:11.613Z,11.77
2022-09-10T10:59:00.225Z,13.02
2022-09-10T11:01:30.752Z,14.55
2022-09-10T11:04:13.490Z,12.98
2022-09-10T11:06:46.761Z,11.35
2022-09-10T11:09:23.755Z,12.30
2022-09-10T11:11:58.830Z,15.45
2022-09-10T11:14:30.901Z,14.00
2022-09-10T11:17:03.049Z,14.48
2022-09-10T11:19:38.555Z,15.73
2022-09-10T11:22:14.463Z,14.95
2022-09-10T11:24:50.074Z,16.75
2022-09-10T11:27:21.420Z,16.38
2022-09-10T11:29:56.621Z,11.02
2022-09-10T11:32:32.401Z,15.00
2022-09-10T11:35:08.483Z,11.13
2022-09-10T11:37:48.292Z,13.30
2022-09-10T11:40:25.280Z,10.85
2022-09-10T11:42:56.491Z,10.88
2022-09-10T11:45:30.297Z,11.45
2022-09-10T11:48:02.821Z,9.35
2022-09-10T11:50:35.050Z,7.63
2022-09-10T11:53:07.299Z,9.20
2022-09-10T11:55:47.436Z,8.02
2022-09-10T11:58:21.242Z,7.03
2022-09-10T12:00:59.414Z,5.45
2022-09-10T12:03:45.365Z,5.25
2022-09-10T12:06:17.573Z,4.65
2022-09-10T12:09:00.744Z,6.57
2022-09-10T12:11:36.762Z,5.28
2022-09-10T12:14:07.559Z,5.43
2022-09-10T12:16:39.893Z,5.18
2022-09-10T12:19:17.211Z,5.68
2022-09-10T12:21:50.812Z,6.10
2022-09-10T12:24:26.866Z,6.43
2022-09-10T12:26:56.732Z,7.90
2022-09-10T12:29:30.438Z,6.88
2022-09-10T12:32:30.845Z,6.88
2022-09-10T12:35:46.752Z,5.18
2022-09-10T12:38:56.016Z,5.35
2022-09-10T12:42:01.201Z,5.97
2022-09-10T12:44:48.720Z,5.35
2022-09-10T12:47:41.955Z,4.80
2022-09-10T12:50:31.735Z,6.25
2022-09-10T12:53:26.381Z,5.82
2022-09-10T12:56:02.264Z,5.72
2022-09-10T12:58:49.941Z,6.32
2022-09-10T13:01:31.294Z,7.10
2022-09-10T13:04:31.400Z,5.10
2022-09-10T13:07:01.546Z,5.57
2022-09-10T13:09:32.776Z,5.18
2022-09-10T13:12:04.641Z,5.18
2022-09-10T13:14:40.588Z,7.13
2022-09-10T13:17:39.861Z,7.93
2022-09-10T13:20:31.181Z,6.60
2022-09-10T13:23:02.251Z,5.40
2022-09-10T13:25:41.493Z,7.20
2022-09-10T13:28:46.604Z,6.75
2022-09-10T13:31:22.427Z,7.53
2022-09-10T13:34:19.421Z,10.27
2022-09-10T13:37:02.690Z,9.38
2022-09-10T13:39:51.004Z,8.85
2022-09-10T13:42:42.354Z,13.18
2022-09-10T13:45:21.801Z,8.13
2022-09-10T13:48:01.098Z,7.10
2022-09-10T13:50:38.738Z,7.85
2022-09-10T13:53:16.373Z,6.63
2022-09-10T13:55:51.464Z,7.00
2022-09-10T13:58:23.251Z,6.15
2022-09-10T14:00:55.863Z,5.50
2022-09-10T14:03:30.108Z,4.95
2022-09-10T14:06:07.767Z,8.65
2022-09-10T14:08:42.295Z,4.43
2022-09-10T14:11:17.796Z,4.60
2022-09-10T14:13:51.789Z,3.60
2022-09-10T14:16:28.320Z,3.70
2022-09-10T14:19:03.279Z,3.30
2022-09-10T14:21:31.832Z,3.58
2022-09-10T14:24:00.274Z,3.50
2022-09-10T14:26:30.047Z,3.17
2022-09-10T14:29:01.233Z,3.47
2022-09-10T14:31:40.031Z,3.10
2022-09-10T14:34:37.051Z,2.40
2022-09-10T14:37:26.906Z,2.30
2022-09-10T14:39:58.465Z,3.83
2022-09-10T14:42:34.170Z,1.90
2022-09-10T14:45:27.032Z,3.58
2022-09-10T14:47:54.900Z,3.50
2022-09-10T14:50:35.151Z,2.72
2022-09-10T14:53:04.186Z,4.53
2022-09-10T14:55:33.958Z,4.20
2022-09-10T14:58:01.757Z,4.07
2022-09-10T15:00:29.981Z,3.72
2022-09-10T15:02:58.462Z,3.63
2022-09-10T15:05:26.104Z,4.22
2022-09-10T15:07:55.079Z,3.63
2022-09-10T15:10:22.633Z,3.40
2022-09-10T15:12:52.811Z,4.35
2022-09-10T15:15:20.444Z,3.65
2022-09-10T15:17:48.209Z,3.75
2022-09-10T15:20:17.701Z,8.82
2022-09-10T15:22:45.965Z,3.85
2022-09-10T15:25:28.248Z,3.40
2022-09-10T15:27:55.967Z,3.20
2022-09-10T15:30:25.663Z,2.90
2022-09-10T15:32:54.417Z,2.80
2022-09-10T15:35:23.015Z,2.85
2022-09-10T15:37:53.273Z,4.05
2022-09-10T15:40:25.664Z,3.70
2022-09-10T15:42:53.255Z,2.30
2022-09-10T15:45:21.194Z,2.90
2022-09-10T15:47:48.963Z,2.40
2022-09-10T15:50:16.721Z,2.97
2022-09-10T15:52:45.083Z,2.45
2022-09-10T15:55:29.232Z,2.35
2022-09-10T15:57:58.458Z,2.97
2022-09-10T16:00:25.982Z,4.97
2022-09-10T16:02:54.541Z,4.85
2022-09-10T16:05:22.600Z,2.78
2022-09-10T16:07:50.372Z,2.30
2022-09-10T16:10:18.161Z,4.30
2022-09-10T16:12:45.876Z,2.13
2022-09-10T16:15:14.803Z,2.67
2022-09-10T16:17:42.490Z,3.40
2022-09-10T16:20:11.114Z,2.30
2022-09-10T16:22:38.995Z,2.33
2022-09-10T16:25:15.305Z,2.10
2022-09-10T16:27:50.416Z,3.15
2022-09-10T16:30:21.139Z,3.40
2022-09-10T16:32:53.309Z,3.08
2022-09-10T16:35:26.656Z,3.25
2022-09-10T16:38:01.744Z,3.95
2022-09-10T16:40:32.473Z,2.80
2022-09-10T16:43:05.456Z,2.75
2022-09-10T16:45:49.709Z,2.92
2022-09-10T16:48:17.703Z,2.53
2022-09-10T16:50:45.514Z,3.30
2022-09-10T16:53:14.105Z,3.15
2022-09-10T16:55:46.297Z,3.55
2022-09-10T16:58:21.189Z,4.10
2022-09-10T17:00:54.525Z,3.55
2022-09-10T17:03:24.181Z,2.92
2022-09-10T17:05:53.981Z,8.38
2022-09-10T17:08:22.145Z,5.90
2022-09-10T17:10:52.767Z,6.25
2022-09-10T17:13:21.147Z,3.60
2022-09-10T17:15:49.096Z,3.10
2022-09-10T17:18:21.287Z,4.43
2022-09-10T17:20:53.533Z,3.78
2022-09-10T17:23:21.452Z,6.25
2022-09-10T17:25:49.143Z,3.83
2022-09-10T17:28:17.175Z,5.60
2022-09-10T17:30:47.228Z,4.07
2022-09-10T17:33:15.484Z,5.28
2022-09-10T17:35:44.470Z,4.97
2022-09-10T17:38:12.243Z,6.53
2022-09-10T17:40:40.036Z,4.35
2022-09-10T17:43:10.187Z,7.10
2022-09-10T17:45:38.103Z,5.43
2022-09-10T17:48:06.023Z,5.78
2022-09-10T17:50:33.556Z,4.47
2022-09-10T17:53:02.741Z,6.05
2022-09-10T17:55:34.416Z,3.90
2022-09-10T17:58:03.220Z,4.50
2022-09-10T18:00:30.972Z,4.32
2022-09-10T18:02:58.828Z,4.43
2022-09-10T18:05:26.978Z,3.72
2022-09-10T18:08:02.671Z,3.38
2022-09-10T18:10:30.575Z,3.50
2022-09-10T18:13:00.334Z,3.63
2022-09-10T18:15:31.551Z,3.30
2022-09-10T18:17:59.936Z,4.80
2022-09-10T18:20:28.794Z,3.63
2022-09-10T18:22:59.723Z,5.07
2022-09-10T18:25:31.860Z,5.20
2022-09-10T18:28:01.357Z,5.85
2022-09-10T18:30:29.667Z,4.68
2022-09-10T18:32:57.549Z,5.70
2022-09-10T18:35:26.182Z,6.63
2022-09-10T18:37:54.225Z,6.07
2022-09-10T18:40:21.911Z,7.85
2022-09-10T18:42:50.907Z,5.90
2022-09-10T18:45:18.600Z,7.93
2022-09-10T18:47:48.413Z,6.32
2022-09-10T18:50:16.141Z,7.35
2022-09-10T18:52:43.632Z,6.55
2022-09-10T18:55:12.187Z,7.03
2022-09-10T18:57:39.759Z,5.90
2022-09-10T19:00:10.523Z,7.03
2022-09-10T19:02:38.155Z,9.13
2022-09-10T19:05:11.633Z,9.55
2022-09-10T19:07:39.810Z,9.57
2022-09-10T19:10:08.834Z,10.40
2022-09-10T19:12:36.581Z,11.20
2022-09-10T19:15:04.606Z,9.85
2022-09-10T19:17:33.576Z,11.63
2022-09-10T19:20:01.114Z,10.57
2022-09-10T19:22:28.861Z,12.85
2022-09-10T19:24:56.563Z,12.48
2022-09-10T19:27:24.778Z,12.55
2022-09-10T19:29:53.280Z,10.77
2022-09-10T19:32:21.009Z,11.70
2022-09-10T19:34:51.307Z,11.57
2022-09-10T19:37:19.464Z,17.50
2022-09-10T19:39:47.606Z,22.42
2022-09-10T19:42:15.328Z,17.17
2022-09-10T19:44:43.498Z,16.00
2022-09-10T19:47:11.106Z,15.80
2022-09-10T19:49:39.067Z,15.50
2022-09-10T19:52:08.231Z,16.05
2022-09-10T19:54:35.892Z,15.85
2022-09-10T19:57:03.645Z,14.52
2022-09-10T19:59:31.364Z,13.90
2022-09-10T20:01:59.150Z,16.50
2022-09-10T20:04:27.779Z,16.70
2022-09-10T20:06:58.307Z,14.90
2022-09-10T20:09:27.490Z,16.13
2022-09-10T20:11:57.180Z,14.73
2022-09-10T20:14:25.378Z,16.65
2022-09-10T20:16:54.662Z,16.08
2022-09-10T20:19:22.476Z,17.70
2022-09-10T20:21:51.657Z,16.80
2022-09-10T20:24:19.300Z,18.88
2022-09-10T20:26:48.931Z,17.92
2022-09-10T20:29:21.287Z,18.25
2022-09-10T20:31:49.247Z,18.27
2022-09-10T20:34:20.684Z,20.48
2022-09-10T20:36:50.711Z,18.98
2022-09-10T20:39:20.329Z,18.30
2022-09-10T20:41:49.542Z,18.88
2022-09-10T20:44:18.170Z,18.92
2022-09-10T20:46:46.213Z,23.45
2022-09-10T20:49:16.135Z,23.17
2022-09-10T20:51:44.366Z,20.20
2022-09-10T20:54:13.856Z,20.10
2022-09-10T20:56:44.146Z,20.40
2022-09-10T20:59:15.576Z,18.98
2022-09-10T21:01:46.304Z,18.70
2022-09-10T21:04:18.397Z,20.23
2022-09-10T21:06:52.577Z,21.75
2022-09-10T21:09:20.293Z,21.10
2022-09-10T21:11:49.418Z,21.63
2022-09-10T21:14:19.158Z,19.48
2022-09-10T21:16:47.374Z,22.77
2022-09-10T21:19:17.318Z,22.98
2022-09-10T21:21:49.593Z,19.25
2022-09-10T21:24:22.682Z,24.88
2022-09-10T21:26:54.020Z,25.00
2022-09-10T21:29:23.289Z,23.85
2022-09-10T21:31:53.207Z,23.63
2022-09-10T21:34:21.215Z,24.08
2022-09-10T21:36:48.848Z,23.90
2022-09-10T21:39:18.198Z,22.17
2022-09-10T21:41:47.360Z,25.10
2022-09-10T21:44:17.586Z,23.75
2022-09-10T21:46:47.348Z,23.23
2022-09-10T21:49:16.105Z,25.73
2022-09-10T21:51:43.978Z,23.13
2022-09-10T21:54:14.960Z,24.60
2022-09-10T21:56:42.653Z,25.10
2022-09-10T21:59:11.697Z,21.80
2022-09-10T22:01:40.197Z,20.30
2022-09-10T22:04:09.166Z,22.23
2022-09-10T22:06:36.885Z,23.35
2022-09-10T22:09:10.181Z,21.40
2022-09-10T22:11:40.611Z,22.33
2022-09-10T22:14:12.443Z,24.02
2022-09-10T22:16:40.684Z,23.65
2022-09-10T22:19:13.144Z,23.42
2022-09-10T22:21:41.341Z,23.58
2022-09-10T22:24:10.703Z,23.63
2022-09-10T22:26:42.481Z,24.13
2022-09-10T22:29:11.702Z,22.27
2022-09-10T22:31:39.688Z,23.05
2022-09-10T22:34:16.210Z,22.98
2022-09-10T22:36:45.337Z,23.55
2022-09-10T22:39:15.479Z,22.10
2022-09-10T22:41:44.134Z,21.45
2022-09-10T22:44:12.183Z,20.17
2022-09-10T22:46:41.063Z,23.67
2022-09-10T22:49:10.781Z,23.42
2022-09-10T22:51:41.623Z,24.75
2022-09-10T22:54:12.657Z,21.38
2022-09-10T22:56:40.529Z,24.25
2022-09-10T22:59:08.579Z,22.08
2022-09-10T23:01:43.936Z,23.95
2022-09-10T23:04:17.785Z,25.25
2022-09-10T23:06:45.563Z,24.35
2022-09-10T23:09:14.558Z,24.13
2022-09-10T23:11:43.989Z,24.92
2022-09-10T23:14:13.797Z,23.95
2022-09-10T23:16:42.759Z,24.70
2022-09-10T23:19:14.052Z,24.70
2022-09-10T23:21:43.934Z,23.90
2022-09-10T23:24:14.065Z,24.33
2022-09-10T23:26:42.167Z,26.88
2022-09-10T23:29:10.221Z,28.67
2022-09-10T23:31:39.748Z,25.20
2022-09-10T23:34:09.841Z,26.83
2022-09-10T23:36:40.690Z,26.77
2022-09-10T23:39:12.019Z,25.92
2022-09-10T23:41:40.825Z,24.52
2022-09-10T23:44:08.807Z,26.80
2022-09-10T23:46:39.902Z,26.88
2022-09-10T23:49:08.830Z,27.92
2022-09-10T23:51:37.113Z,27.35
2022-09-10T23:54:06.212Z,27.63
2022-09-10T23:56:34.337Z,28.40
2022-09-10T23:59:03.452Z,28.27
